KLYH

Lynchburg Regional / Preston Glenn Field Airport

Lynchburg, Virginia, USA
METAR KLYH 150054Z 00000KT 10SM CLR 21/19 A3000 RMK AO2 SLP153 T02060194
Observed Flight Rules
Aug-15 @ 00:54 UTC (11 minutes ago) Visual Flight Rules
Visibility Clouds
10 miles
  • Clear skies
Temperatures Readings
Current 21°C / 70°F
Dewpoint 19°C / 66°F
Humidity 88%
Altimeter 30" Hg
Pressure 1015.3 hPa
Elevation 295
METAR KLYH 150054Z 00000KT 10SM CLR 21/19 A3000 RMK AO2 SLP153 T02060194
Observed Flight Rules
Aug-15 @ 00:54 UTC
(11 minutes ago)
VFR
Clouds
  • Clear skies
Temperature Dewpoint
21°C / 70°F 19°C / 66°F
Humidity Altimeter Pressure
88% 30" Hg 1015.3 hPa